sensor_id;sensor_type;location;lat;lon;timestamp;temperature;humidity
16846;DHT22;8539;53.188;8.696;2022-11-27T00:04:19;6.10;99.90
16846;DHT22;8539;53.188;8.696;2022-11-27T00:06:45;6.10;99.90
16846;DHT22;8539;53.188;8.696;2022-11-27T00:09:14;6.20;99.90
16846;DHT22;8539;53.188;8.696;2022-11-27T00:12:14;6.10;99.90
16846;DHT22;8539;53.188;8.696;2022-11-27T00:14:43;6.40;99.90
16846;DHT22;8539;53.188;8.696;2022-11-27T00:17:09;6.20;99.90
16846;DHT22;8539;53.188;8.696;2022-11-27T00:19:36;6.20;99.90
16846;DHT22;8539;53.188;8.696;2022-11-27T00:22:02;6.20;99.90
16846;DHT22;8539;53.188;8.696;2022-11-27T00:24:29;6.80;99.90
16846;DHT22;8539;53.188;8.696;2022-11-27T00:29:57;6.20;99.90
16846;DHT22;8539;53.188;8.696;2022-11-27T00:32:23;6.50;99.90
16846;DHT22;8539;53.188;8.696;2022-11-27T00:38:19;6.00;99.90
16846;DHT22;8539;53.188;8.696;2022-11-27T00:40:48;6.10;99.90
16846;DHT22;8539;53.188;8.696;2022-11-27T00:43:14;6.20;99.90
16846;DHT22;8539;53.188;8.696;2022-11-27T00:45:40;6.20;99.90
16846;DHT22;8539;53.188;8.696;2022-11-27T00:48:06;6.20;99.90
16846;DHT22;8539;53.188;8.696;2022-11-27T00:50:32;6.20;99.90
16846;DHT22;8539;53.188;8.696;2022-11-27T00:52:58;6.10;99.90
16846;DHT22;8539;53.188;8.696;2022-11-27T00:55:27;6.20;99.90
16846;DHT22;8539;53.188;8.696;2022-11-27T00:57:53;6.80;99.90
16846;DHT22;8539;53.188;8.696;2022-11-27T01:00:19;6.20;99.90
16846;DHT22;8539;53.188;8.696;2022-11-27T01:02:47;6.20;99.90
16846;DHT22;8539;53.188;8.696;2022-11-27T01:05:13;6.30;99.90
16846;DHT22;8539;53.188;8.696;2022-11-27T01:07:39;6.20;99.90
16846;DHT22;8539;53.188;8.696;2022-11-27T01:10:06;6.20;99.90
16846;DHT22;8539;53.188;8.696;2022-11-27T01:12:32;6.20;99.90
16846;DHT22;8539;53.188;8.696;2022-11-27T01:14:58;6.20;99.90
16846;DHT22;8539;53.188;8.696;2022-11-27T01:17:24;6.20;99.90
16846;DHT22;8539;53.188;8.696;2022-11-27T01:19:51;6.20;99.90
16846;DHT22;8539;53.188;8.696;2022-11-27T01:22:17;6.20;99.90
16846;DHT22;8539;53.188;8.696;2022-11-27T01:24:43;6.20;99.90
16846;DHT22;8539;53.188;8.696;2022-11-27T01:27:09;6.20;99.90
16846;DHT22;8539;53.188;8.696;2022-11-27T01:29:35;6.70;99.90
16846;DHT22;8539;53.188;8.696;2022-11-27T01:32:01;6.20;99.90
16846;DHT22;8539;53.188;8.696;2022-11-27T01:34:27;6.20;99.90
16846;DHT22;8539;53.188;8.696;2022-11-27T01:36:56;6.20;99.90
16846;DHT22;8539;53.188;8.696;2022-11-27T01:39:22;6.20;99.90
16846;DHT22;8539;53.188;8.696;2022-11-27T01:41:49;6.10;99.90
16846;DHT22;8539;53.188;8.696;2022-11-27T01:49:39;6.10;99.90
16846;DHT22;8539;53.188;8.696;2022-11-27T01:52:16;6.20;99.90
16846;DHT22;8539;53.188;8.696;2022-11-27T01:55:29;6.10;99.90
16846;DHT22;8539;53.188;8.696;2022-11-27T01:58:32;6.10;99.90
16846;DHT22;8539;53.188;8.696;2022-11-27T02:01:09;6.10;99.90
16846;DHT22;8539;53.188;8.696;2022-11-27T02:03:35;6.00;99.90
16846;DHT22;8539;53.188;8.696;2022-11-27T02:06:01;6.00;99.90
16846;DHT22;8539;53.188;8.696;2022-11-27T02:08:56;6.00;99.90
16846;DHT22;8539;53.188;8.696;2022-11-27T02:11:45;5.90;99.90
16846;DHT22;8539;53.188;8.696;2022-11-27T02:14:37;5.90;99.90
16846;DHT22;8539;53.188;8.696;2022-11-27T02:17:19;5.80;99.90
16846;DHT22;8539;53.188;8.696;2022-11-27T02:29:31;5.50;99.90
16846;DHT22;8539;53.188;8.696;2022-11-27T02:32:38;5.50;99.90
16846;DHT22;8539;53.188;8.696;2022-11-27T02:38:07;5.30;99.90
16846;DHT22;8539;53.188;8.696;2022-11-27T02:40:53;5.30;99.90
16846;DHT22;8539;53.188;8.696;2022-11-27T02:43:29;5.90;99.90
16846;DHT22;8539;53.188;8.696;2022-11-27T02:45:57;5.20;99.90
16846;DHT22;8539;53.188;8.696;2022-11-27T02:48:30;5.10;99.90
16846;DHT22;8539;53.188;8.696;2022-11-27T02:50:58;5.10;99.90
16846;DHT22;8539;53.188;8.696;2022-11-27T02:56:33;4.20;99.90
16846;DHT22;8539;53.188;8.696;2022-11-27T02:59:02;5.60;99.90
16846;DHT22;8539;53.188;8.696;2022-11-27T03:01:33;5.70;99.90
16846;DHT22;8539;53.188;8.696;2022-11-27T03:04:02;4.90;99.90
16846;DHT22;8539;53.188;8.696;2022-11-27T03:06:38;4.90;99.90
16846;DHT22;8539;53.188;8.696;2022-11-27T03:09:09;4.80;99.90
16846;DHT22;8539;53.188;8.696;2022-11-27T03:11:37;4.80;99.90
16846;DHT22;8539;53.188;8.696;2022-11-27T03:14:06;4.80;99.90
16846;DHT22;8539;53.188;8.696;2022-11-27T03:17:05;4.80;99.90
16846;DHT22;8539;53.188;8.696;2022-11-27T03:19:50;4.80;99.90
16846;DHT22;8539;53.188;8.696;2022-11-27T03:22:18;4.70;99.90
16846;DHT22;8539;53.188;8.696;2022-11-27T03:24:44;4.70;99.90
16846;DHT22;8539;53.188;8.696;2022-11-27T03:27:17;4.90;99.90
16846;DHT22;8539;53.188;8.696;2022-11-27T03:29:58;4.60;99.90
16846;DHT22;8539;53.188;8.696;2022-11-27T03:32:26;4.60;99.90
16846;DHT22;8539;53.188;8.696;2022-11-27T03:34:53;4.60;99.90
16846;DHT22;8539;53.188;8.696;2022-11-27T03:37:21;4.80;99.90
16846;DHT22;8539;53.188;8.696;2022-11-27T03:39:47;4.80;99.90
16846;DHT22;8539;53.188;8.696;2022-11-27T03:46:04;4.50;99.90
16846;DHT22;8539;53.188;8.696;2022-11-27T03:49:30;4.40;99.90
16846;DHT22;8539;53.188;8.696;2022-11-27T03:52:07;4.30;99.90
16846;DHT22;8539;53.188;8.696;2022-11-27T03:54:58;4.50;99.90
16846;DHT22;8539;53.188;8.696;2022-11-27T04:00:18;4.30;99.90
16846;DHT22;8539;53.188;8.696;2022-11-27T04:02:50;4.20;99.90
16846;DHT22;8539;53.188;8.696;2022-11-27T04:05:18;4.50;99.90
16846;DHT22;8539;53.188;8.696;2022-11-27T04:07:44;4.70;99.90
16846;DHT22;8539;53.188;8.696;2022-11-27T04:10:11;4.20;99.90
16846;DHT22;8539;53.188;8.696;2022-11-27T04:12:37;5.00;99.90
16846;DHT22;8539;53.188;8.696;2022-11-27T04:15:04;4.10;99.90
16846;DHT22;8539;53.188;8.696;2022-11-27T04:17:31;4.10;99.90
16846;DHT22;8539;53.188;8.696;2022-11-27T04:19:57;4.10;99.90
16846;DHT22;8539;53.188;8.696;2022-11-27T04:22:23;4.00;99.90
16846;DHT22;8539;53.188;8.696;2022-11-27T04:24:50;4.00;99.90
16846;DHT22;8539;53.188;8.696;2022-11-27T04:27:16;3.90;99.90
16846;DHT22;8539;53.188;8.696;2022-11-27T04:29:43;3.90;99.90
16846;DHT22;8539;53.188;8.696;2022-11-27T04:32:09;3.90;99.90
16846;DHT22;8539;53.188;8.696;2022-11-27T04:34:35;3.80;99.90
16846;DHT22;8539;53.188;8.696;2022-11-27T04:37:17;3.80;99.90
16846;DHT22;8539;53.188;8.696;2022-11-27T04:39:50;4.20;99.90
16846;DHT22;8539;53.188;8.696;2022-11-27T04:42:19;4.00;99.90
16846;DHT22;8539;53.188;8.696;2022-11-27T04:44:45;4.00;99.90
16846;DHT22;8539;53.188;8.696;2022-11-27T04:47:11;4.00;99.90
16846;DHT22;8539;53.188;8.696;2022-11-27T04:49:37;3.60;99.90
16846;DHT22;8539;53.188;8.696;2022-11-27T04:52:04;3.70;99.90
16846;DHT22;8539;53.188;8.696;2022-11-27T04:54:30;3.80;99.90
16846;DHT22;8539;53.188;8.696;2022-11-27T04:56:56;3.40;99.90
16846;DHT22;8539;53.188;8.696;2022-11-27T04:59:22;3.60;99.90
16846;DHT22;8539;53.188;8.696;2022-11-27T05:01:48;4.10;99.90
16846;DHT22;8539;53.188;8.696;2022-11-27T05:04:14;3.40;99.90
16846;DHT22;8539;53.188;8.696;2022-11-27T05:06:41;3.50;99.90
16846;DHT22;8539;53.188;8.696;2022-11-27T05:12:39;2.60;99.90
16846;DHT22;8539;53.188;8.696;2022-11-27T05:15:06;3.10;99.90
16846;DHT22;8539;53.188;8.696;2022-11-27T05:17:32;3.10;99.90
16846;DHT22;8539;53.188;8.696;2022-11-27T05:19:58;4.10;99.90
16846;DHT22;8539;53.188;8.696;2022-11-27T05:22:24;3.10;99.90
16846;DHT22;8539;53.188;8.696;2022-11-27T05:25:10;3.10;99.90
16846;DHT22;8539;53.188;8.696;2022-11-27T05:27:36;3.10;99.90
16846;DHT22;8539;53.188;8.696;2022-11-27T05:30:02;3.10;99.90
16846;DHT22;8539;53.188;8.696;2022-11-27T05:32:31;3.10;99.90
16846;DHT22;8539;53.188;8.696;2022-11-27T05:34:57;3.00;99.90
16846;DHT22;8539;53.188;8.696;2022-11-27T05:37:23;3.50;99.90
16846;DHT22;8539;53.188;8.696;2022-11-27T05:40:18;3.60;99.90
16846;DHT22;8539;53.188;8.696;2022-11-27T05:42:47;3.00;99.90
16846;DHT22;8539;53.188;8.696;2022-11-27T05:45:14;3.00;99.90
16846;DHT22;8539;53.188;8.696;2022-11-27T05:47:40;2.90;99.90
16846;DHT22;8539;53.188;8.696;2022-11-27T05:50:06;3.40;99.90
16846;DHT22;8539;53.188;8.696;2022-11-27T05:52:33;3.00;99.90
16846;DHT22;8539;53.188;8.696;2022-11-27T05:54:59;3.10;99.90
16846;DHT22;8539;53.188;8.696;2022-11-27T05:57:25;3.00;99.90
16846;DHT22;8539;53.188;8.696;2022-11-27T05:59:51;3.10;99.90
16846;DHT22;8539;53.188;8.696;2022-11-27T06:02:17;3.50;99.90
16846;DHT22;8539;53.188;8.696;2022-11-27T06:04:43;3.70;99.90
16846;DHT22;8539;53.188;8.696;2022-11-27T06:07:09;3.40;99.90
16846;DHT22;8539;53.188;8.696;2022-11-27T06:09:38;3.40;99.90
16846;DHT22;8539;53.188;8.696;2022-11-27T06:12:04;3.60;99.90
16846;DHT22;8539;53.188;8.696;2022-11-27T06:14:31;2.80;99.90
16846;DHT22;8539;53.188;8.696;2022-11-27T06:17:03;2.70;99.90
16846;DHT22;8539;53.188;8.696;2022-11-27T06:19:29;2.60;99.90
16846;DHT22;8539;53.188;8.696;2022-11-27T06:21:55;3.20;99.90
16846;DHT22;8539;53.188;8.696;2022-11-27T06:24:21;3.40;99.90
16846;DHT22;8539;53.188;8.696;2022-11-27T06:26:47;2.60;99.90
16846;DHT22;8539;53.188;8.696;2022-11-27T06:29:13;3.30;99.90
16846;DHT22;8539;53.188;8.696;2022-11-27T06:31:39;3.00;99.90
16846;DHT22;8539;53.188;8.696;2022-11-27T06:34:25;2.60;99.90
16846;DHT22;8539;53.188;8.696;2022-11-27T06:36:57;2.70;99.90
16846;DHT22;8539;53.188;8.696;2022-11-27T06:39:28;2.40;99.90
16846;DHT22;8539;53.188;8.696;2022-11-27T06:41:54;2.50;99.90
16846;DHT22;8539;53.188;8.696;2022-11-27T06:44:20;2.90;99.90
16846;DHT22;8539;53.188;8.696;2022-11-27T06:46:47;2.50;99.90
16846;DHT22;8539;53.188;8.696;2022-11-27T06:49:13;3.40;99.90
16846;DHT22;8539;53.188;8.696;2022-11-27T06:51:39;2.70;99.90
16846;DHT22;8539;53.188;8.696;2022-11-27T06:54:05;2.70;99.90
16846;DHT22;8539;53.188;8.696;2022-11-27T06:56:31;3.10;99.90
16846;DHT22;8539;53.188;8.696;2022-11-27T06:58:59;2.70;99.90
16846;DHT22;8539;53.188;8.696;2022-11-27T07:01:27;2.90;99.90
16846;DHT22;8539;53.188;8.696;2022-11-27T07:03:55;3.30;99.90
16846;DHT22;8539;53.188;8.696;2022-11-27T07:06:23;2.70;99.90
16846;DHT22;8539;53.188;8.696;2022-11-27T07:08:49;2.70;99.90
16846;DHT22;8539;53.188;8.696;2022-11-27T07:11:20;2.60;99.90
16846;DHT22;8539;53.188;8.696;2022-11-27T07:13:47;2.60;99.90
16846;DHT22;8539;53.188;8.696;2022-11-27T07:16:14;2.60;99.90
16846;DHT22;8539;53.188;8.696;2022-11-27T07:18:43;3.30;99.90
16846;DHT22;8539;53.188;8.696;2022-11-27T07:21:10;3.20;99.90
16846;DHT22;8539;53.188;8.696;2022-11-27T07:23:36;2.60;99.90
16846;DHT22;8539;53.188;8.696;2022-11-27T07:26:11;2.50;99.90
16846;DHT22;8539;53.188;8.696;2022-11-27T07:28:37;2.50;99.90
16846;DHT22;8539;53.188;8.696;2022-11-27T07:31:04;2.60;99.90
16846;DHT22;8539;53.188;8.696;2022-11-27T07:33:30;2.50;99.90
16846;DHT22;8539;53.188;8.696;2022-11-27T07:36:06;2.50;99.90
16846;DHT22;8539;53.188;8.696;2022-11-27T07:38:33;2.50;99.90
16846;DHT22;8539;53.188;8.696;2022-11-27T07:41:01;3.10;99.90
16846;DHT22;8539;53.188;8.696;2022-11-27T07:43:53;2.60;99.90
16846;DHT22;8539;53.188;8.696;2022-11-27T07:46:21;3.10;99.90
16846;DHT22;8539;53.188;8.696;2022-11-27T07:49:10;2.60;99.90
16846;DHT22;8539;53.188;8.696;2022-11-27T07:52:04;2.90;99.90
16846;DHT22;8539;53.188;8.696;2022-11-27T07:55:01;2.80;99.90
16846;DHT22;8539;53.188;8.696;2022-11-27T08:01:25;2.60;99.90
16846;DHT22;8539;53.188;8.696;2022-11-27T08:04:15;3.20;99.90
16846;DHT22;8539;53.188;8.696;2022-11-27T08:06:41;2.70;99.90
16846;DHT22;8539;53.188;8.696;2022-11-27T08:09:07;2.70;99.90
16846;DHT22;8539;53.188;8.696;2022-11-27T08:11:33;3.60;99.90
16846;DHT22;8539;53.188;8.696;2022-11-27T08:14:02;2.80;99.90
16846;DHT22;8539;53.188;8.696;2022-11-27T08:16:29;2.90;99.90
16846;DHT22;8539;53.188;8.696;2022-11-27T08:19:12;2.90;99.90
16846;DHT22;8539;53.188;8.696;2022-11-27T08:21:53;3.10;99.90
16846;DHT22;8539;53.188;8.696;2022-11-27T08:24:24;3.90;99.90
16846;DHT22;8539;53.188;8.696;2022-11-27T08:26:50;2.10;99.90
16846;DHT22;8539;53.188;8.696;2022-11-27T08:29:21;3.20;99.90
16846;DHT22;8539;53.188;8.696;2022-11-27T08:31:47;3.00;99.90
16846;DHT22;8539;53.188;8.696;2022-11-27T08:34:13;3.50;99.90
16846;DHT22;8539;53.188;8.696;2022-11-27T08:36:39;3.10;99.90
16846;DHT22;8539;53.188;8.696;2022-11-27T08:39:05;3.60;99.90
16846;DHT22;8539;53.188;8.696;2022-11-27T08:41:36;3.10;99.90
16846;DHT22;8539;53.188;8.696;2022-11-27T08:44:03;2.60;99.90
16846;DHT22;8539;53.188;8.696;2022-11-27T08:46:41;3.20;99.90
16846;DHT22;8539;53.188;8.696;2022-11-27T08:49:21;3.10;99.90
16846;DHT22;8539;53.188;8.696;2022-11-27T08:51:56;3.10;99.90
16846;DHT22;8539;53.188;8.696;2022-11-27T08:54:28;2.80;99.90
16846;DHT22;8539;53.188;8.696;2022-11-27T08:57:24;3.10;99.90
16846;DHT22;8539;53.188;8.696;2022-11-27T08:59:50;3.10;99.90
16846;DHT22;8539;53.188;8.696;2022-11-27T09:02:39;3.30;99.90
16846;DHT22;8539;53.188;8.696;2022-11-27T09:05:19;4.10;99.90
16846;DHT22;8539;53.188;8.696;2022-11-27T09:07:51;4.30;99.90
16846;DHT22;8539;53.188;8.696;2022-11-27T09:10:17;3.50;99.90
16846;DHT22;8539;53.188;8.696;2022-11-27T09:12:46;3.70;99.90
16846;DHT22;8539;53.188;8.696;2022-11-27T09:18:31;3.80;99.90
16846;DHT22;8539;53.188;8.696;2022-11-27T09:21:07;3.70;99.90
16846;DHT22;8539;53.188;8.696;2022-11-27T09:23:51;3.90;99.90
16846;DHT22;8539;53.188;8.696;2022-11-27T09:26:25;3.80;99.90
16846;DHT22;8539;53.188;8.696;2022-11-27T09:28:53;4.00;99.90
16846;DHT22;8539;53.188;8.696;2022-11-27T09:31:20;4.80;99.90
16846;DHT22;8539;53.188;8.696;2022-11-27T09:33:46;4.20;99.90
16846;DHT22;8539;53.188;8.696;2022-11-27T09:36:18;4.70;99.90
16846;DHT22;8539;53.188;8.696;2022-11-27T09:39:19;4.60;99.90
16846;DHT22;8539;53.188;8.696;2022-11-27T09:41:51;3.80;99.90
16846;DHT22;8539;53.188;8.696;2022-11-27T09:44:46;4.90;99.90
16846;DHT22;8539;53.188;8.696;2022-11-27T09:50:15;4.30;99.90
16846;DHT22;8539;53.188;8.696;2022-11-27T09:52:52;4.40;99.90
16846;DHT22;8539;53.188;8.696;2022-11-27T10:00:49;4.50;99.90
16846;DHT22;8539;53.188;8.696;2022-11-27T10:03:20;4.60;99.90
16846;DHT22;8539;53.188;8.696;2022-11-27T10:15:14;4.90;99.90
16846;DHT22;8539;53.188;8.696;2022-11-27T10:18:20;4.90;99.90
16846;DHT22;8539;53.188;8.696;2022-11-27T10:20:42;4.90;99.90
16846;DHT22;8539;53.188;8.696;2022-11-27T10:23:45;5.00;99.90
16846;DHT22;8539;53.188;8.696;2022-11-27T10:26:28;5.00;99.90
16846;DHT22;8539;53.188;8.696;2022-11-27T10:32:25;5.10;99.90
16846;DHT22;8539;53.188;8.696;2022-11-27T10:34:56;5.10;99.90
16846;DHT22;8539;53.188;8.696;2022-11-27T10:37:38;5.10;99.90
16846;DHT22;8539;53.188;8.696;2022-11-27T10:45:56;5.20;99.90
16846;DHT22;8539;53.188;8.696;2022-11-27T10:51:35;5.20;99.90
16846;DHT22;8539;53.188;8.696;2022-11-27T10:54:21;5.30;99.90
16846;DHT22;8539;53.188;8.696;2022-11-27T11:02:38;5.50;99.90
16846;DHT22;8539;53.188;8.696;2022-11-27T11:05:22;5.50;99.90
16846;DHT22;8539;53.188;8.696;2022-11-27T11:08:02;5.60;99.90
16846;DHT22;8539;53.188;8.696;2022-11-27T11:11:25;5.90;99.90
16846;DHT22;8539;53.188;8.696;2022-11-27T11:13:57;5.70;99.90
16846;DHT22;8539;53.188;8.696;2022-11-27T11:21:00;5.70;99.90
16846;DHT22;8539;53.188;8.696;2022-11-27T11:27:06;5.80;99.90
16846;DHT22;8539;53.188;8.696;2022-11-27T11:30:00;5.70;99.90
16846;DHT22;8539;53.188;8.696;2022-11-27T11:32:31;5.70;99.90
16846;DHT22;8539;53.188;8.696;2022-11-27T11:35:32;5.80;99.90
16846;DHT22;8539;53.188;8.696;2022-11-27T11:41:51;6.50;99.90
16846;DHT22;8539;53.188;8.696;2022-11-27T12:00:48;6.20;99.90
16846;DHT22;8539;53.188;8.696;2022-11-27T12:03:36;6.20;99.90
16846;DHT22;8539;53.188;8.696;2022-11-27T12:25:53;6.30;99.90
16846;DHT22;8539;53.188;8.696;2022-11-27T12:37:18;6.50;99.90
16846;DHT22;8539;53.188;8.696;2022-11-27T12:43:12;6.40;99.90
16846;DHT22;8539;53.188;8.696;2022-11-27T12:46:10;6.40;99.90
16846;DHT22;8539;53.188;8.696;2022-11-27T12:52:13;6.10;99.90
16846;DHT22;8539;53.188;8.696;2022-11-27T12:58:12;6.40;99.90
16846;DHT22;8539;53.188;8.696;2022-11-27T13:00:41;6.40;99.90
16846;DHT22;8539;53.188;8.696;2022-11-27T13:03:24;6.70;99.90
16846;DHT22;8539;53.188;8.696;2022-11-27T13:06:11;6.40;99.90
16846;DHT22;8539;53.188;8.696;2022-11-27T13:11:09;6.40;99.90
16846;DHT22;8539;53.188;8.696;2022-11-27T13:13:42;6.40;99.90
16846;DHT22;8539;53.188;8.696;2022-11-27T13:16:25;6.40;99.90
16846;DHT22;8539;53.188;8.696;2022-11-27T13:21:38;6.40;99.90
16846;DHT22;8539;53.188;8.696;2022-11-27T13:24:08;6.40;99.90
16846;DHT22;8539;53.188;8.696;2022-11-27T13:29:29;6.40;99.90
16846;DHT22;8539;53.188;8.696;2022-11-27T13:31:58;6.40;99.90
16846;DHT22;8539;53.188;8.696;2022-11-27T13:34:27;6.40;99.90
16846;DHT22;8539;53.188;8.696;2022-11-27T13:37:01;6.50;99.90
16846;DHT22;8539;53.188;8.696;2022-11-27T13:43:30;6.70;99.90
16846;DHT22;8539;53.188;8.696;2022-11-27T13:46:07;6.90;99.90
16846;DHT22;8539;53.188;8.696;2022-11-27T13:48:41;6.60;99.90
16846;DHT22;8539;53.188;8.696;2022-11-27T13:51:28;6.50;99.90
16846;DHT22;8539;53.188;8.696;2022-11-27T13:54:15;6.50;99.90
16846;DHT22;8539;53.188;8.696;2022-11-27T13:56:43;6.50;99.90
16846;DHT22;8539;53.188;8.696;2022-11-27T13:59:13;6.50;99.90
16846;DHT22;8539;53.188;8.696;2022-11-27T14:01:58;6.50;99.90
16846;DHT22;8539;53.188;8.696;2022-11-27T14:08:00;6.70;99.90
16846;DHT22;8539;53.188;8.696;2022-11-27T14:10:31;6.60;99.90
16846;DHT22;8539;53.188;8.696;2022-11-27T14:15:29;6.30;99.90
16846;DHT22;8539;53.188;8.696;2022-11-27T14:18:19;6.40;99.90
16846;DHT22;8539;53.188;8.696;2022-11-27T14:21:01;6.30;99.90
16846;DHT22;8539;53.188;8.696;2022-11-27T14:23:33;6.10;99.90
16846;DHT22;8539;53.188;8.696;2022-11-27T14:28:45;6.30;99.90
16846;DHT22;8539;53.188;8.696;2022-11-27T14:31:24;6.20;99.90
16846;DHT22;8539;53.188;8.696;2022-11-27T14:33:59;6.50;99.90
16846;DHT22;8539;53.188;8.696;2022-11-27T14:36:29;6.20;99.90
16846;DHT22;8539;53.188;8.696;2022-11-27T14:39:04;6.20;99.90
16846;DHT22;8539;53.188;8.696;2022-11-27T14:41:31;6.20;99.90
16846;DHT22;8539;53.188;8.696;2022-11-27T14:44:05;6.10;99.90
16846;DHT22;8539;53.188;8.696;2022-11-27T14:46:34;6.10;99.90
16846;DHT22;8539;53.188;8.696;2022-11-27T14:49:01;6.10;99.90
16846;DHT22;8539;53.188;8.696;2022-11-27T14:51:33;6.10;99.90
16846;DHT22;8539;53.188;8.696;2022-11-27T14:54:00;6.10;99.90
16846;DHT22;8539;53.188;8.696;2022-11-27T14:56:32;6.10;99.90
16846;DHT22;8539;53.188;8.696;2022-11-27T14:59:05;6.00;99.90
16846;DHT22;8539;53.188;8.696;2022-11-27T15:01:38;6.00;99.90
16846;DHT22;8539;53.188;8.696;2022-11-27T15:06:51;5.90;99.90
16846;DHT22;8539;53.188;8.696;2022-11-27T15:09:26;5.90;99.90
16846;DHT22;8539;53.188;8.696;2022-11-27T15:11:58;5.40;99.90
16846;DHT22;8539;53.188;8.696;2022-11-27T15:14:27;5.90;99.90
16846;DHT22;8539;53.188;8.696;2022-11-27T15:16:56;5.90;99.90
16846;DHT22;8539;53.188;8.696;2022-11-27T15:19:33;5.80;99.90
16846;DHT22;8539;53.188;8.696;2022-11-27T15:22:17;5.80;99.90
16846;DHT22;8539;53.188;8.696;2022-11-27T15:24:43;5.80;99.90
16846;DHT22;8539;53.188;8.696;2022-11-27T15:30:29;5.80;99.90
16846;DHT22;8539;53.188;8.696;2022-11-27T15:32:44;5.70;99.90
16846;DHT22;8539;53.188;8.696;2022-11-27T15:35:28;5.80;99.90
16846;DHT22;8539;53.188;8.696;2022-11-27T15:37:58;5.70;99.90
16846;DHT22;8539;53.188;8.696;2022-11-27T15:40:36;5.70;99.90
16846;DHT22;8539;53.188;8.696;2022-11-27T15:43:13;5.70;99.90
16846;DHT22;8539;53.188;8.696;2022-11-27T15:45:41;5.90;99.90
16846;DHT22;8539;53.188;8.696;2022-11-27T15:48:14;5.20;99.90
16846;DHT22;8539;53.188;8.696;2022-11-27T15:50:41;5.70;99.90
16846;DHT22;8539;53.188;8.696;2022-11-27T15:53:07;5.60;99.90
16846;DHT22;8539;53.188;8.696;2022-11-27T15:55:33;5.60;99.90
16846;DHT22;8539;53.188;8.696;2022-11-27T15:57:59;5.90;99.90
16846;DHT22;8539;53.188;8.696;2022-11-27T16:01:24;5.60;99.90
16846;DHT22;8539;53.188;8.696;2022-11-27T16:12:34;6.20;99.90
16846;DHT22;8539;53.188;8.696;2022-11-27T16:19:41;5.60;99.90
16846;DHT22;8539;53.188;8.696;2022-11-27T16:22:07;5.70;99.90
16846;DHT22;8539;53.188;8.696;2022-11-27T16:24:33;6.00;99.90
16846;DHT22;8539;53.188;8.696;2022-11-27T16:26:59;5.80;99.90
16846;DHT22;8539;53.188;8.696;2022-11-27T16:29:25;5.80;99.90
16846;DHT22;8539;53.188;8.696;2022-11-27T16:31:51;5.80;99.90
16846;DHT22;8539;53.188;8.696;2022-11-27T16:34:20;5.80;99.90
16846;DHT22;8539;53.188;8.696;2022-11-27T16:36:46;5.80;99.90
16846;DHT22;8539;53.188;8.696;2022-11-27T16:39:12;5.80;99.90
16846;DHT22;8539;53.188;8.696;2022-11-27T16:41:39;5.80;99.90
16846;DHT22;8539;53.188;8.696;2022-11-27T17:06:26;6.50;99.90
16846;DHT22;8539;53.188;8.696;2022-11-27T17:09:17;5.80;99.90
16846;DHT22;8539;53.188;8.696;2022-11-27T17:11:54;5.80;99.90
16846;DHT22;8539;53.188;8.696;2022-11-27T17:14:29;6.30;99.90
16846;DHT22;8539;53.188;8.696;2022-11-27T17:16:55;5.80;99.90
16846;DHT22;8539;53.188;8.696;2022-11-27T17:19:21;5.80;99.90
16846;DHT22;8539;53.188;8.696;2022-11-27T17:21:48;5.80;99.90
16846;DHT22;8539;53.188;8.696;2022-11-27T17:24:20;5.80;99.90
16846;DHT22;8539;53.188;8.696;2022-11-27T17:26:47;5.90;99.90
16846;DHT22;8539;53.188;8.696;2022-11-27T17:29:17;5.90;99.90
16846;DHT22;8539;53.188;8.696;2022-11-27T17:32:15;5.90;99.90
16846;DHT22;8539;53.188;8.696;2022-11-27T17:34:42;5.90;99.90
16846;DHT22;8539;53.188;8.696;2022-11-27T17:37:36;5.80;99.90
16846;DHT22;8539;53.188;8.696;2022-11-27T17:40:19;6.60;99.90
16846;DHT22;8539;53.188;8.696;2022-11-27T17:42:48;5.20;99.90
16846;DHT22;8539;53.188;8.696;2022-11-27T17:45:14;5.80;99.90
16846;DHT22;8539;53.188;8.696;2022-11-27T17:54:54;5.80;99.90
16846;DHT22;8539;53.188;8.696;2022-11-27T17:57:24;5.80;99.90
16846;DHT22;8539;53.188;8.696;2022-11-27T17:59:55;5.80;99.90
16846;DHT22;8539;53.188;8.696;2022-11-27T18:03:16;5.80;99.90
16846;DHT22;8539;53.188;8.696;2022-11-27T18:06:06;5.90;99.90
16846;DHT22;8539;53.188;8.696;2022-11-27T18:08:36;5.90;99.90
16846;DHT22;8539;53.188;8.696;2022-11-27T18:11:16;5.90;99.90
16846;DHT22;8539;53.188;8.696;2022-11-27T18:13:48;5.90;99.90
16846;DHT22;8539;53.188;8.696;2022-11-27T18:16:32;5.90;99.90
16846;DHT22;8539;53.188;8.696;2022-11-27T18:19:12;5.90;99.90
16846;DHT22;8539;53.188;8.696;2022-11-27T18:21:49;5.90;99.90
16846;DHT22;8539;53.188;8.696;2022-11-27T18:24:40;5.60;99.90
16846;DHT22;8539;53.188;8.696;2022-11-27T18:27:31;5.20;99.90
16846;DHT22;8539;53.188;8.696;2022-11-27T18:29:58;5.90;99.90
16846;DHT22;8539;53.188;8.696;2022-11-27T18:33:00;5.90;99.90
16846;DHT22;8539;53.188;8.696;2022-11-27T18:35:31;6.70;99.90
16846;DHT22;8539;53.188;8.696;2022-11-27T18:37:57;5.80;99.90
16846;DHT22;8539;53.188;8.696;2022-11-27T18:41:07;5.80;99.90
16846;DHT22;8539;53.188;8.696;2022-11-27T18:43:59;5.80;99.90
16846;DHT22;8539;53.188;8.696;2022-11-27T18:46:40;5.80;99.90
16846;DHT22;8539;53.188;8.696;2022-11-27T18:49:13;5.70;99.90
16846;DHT22;8539;53.188;8.696;2022-11-27T18:52:13;5.60;99.90
16846;DHT22;8539;53.188;8.696;2022-11-27T18:54:53;5.70;99.90
16846;DHT22;8539;53.188;8.696;2022-11-27T19:00:23;5.80;99.90
16846;DHT22;8539;53.188;8.696;2022-11-27T19:02:59;5.60;99.90
16846;DHT22;8539;53.188;8.696;2022-11-27T19:06:10;5.70;99.90
16846;DHT22;8539;53.188;8.696;2022-11-27T19:08:40;5.80;99.90
16846;DHT22;8539;53.188;8.696;2022-11-27T19:11:31;5.80;99.90
16846;DHT22;8539;53.188;8.696;2022-11-27T19:14:14;5.80;99.90
16846;DHT22;8539;53.188;8.696;2022-11-27T19:16:51;5.80;99.90
16846;DHT22;8539;53.188;8.696;2022-11-27T19:19:20;5.30;99.90
16846;DHT22;8539;53.188;8.696;2022-11-27T19:22:09;5.80;99.90
16846;DHT22;8539;53.188;8.696;2022-11-27T21:43:21;5.60;99.90
16846;DHT22;8539;53.188;8.696;2022-11-27T21:45:47;5.60;99.90
16846;DHT22;8539;53.188;8.696;2022-11-27T21:48:14;5.60;99.90
16846;DHT22;8539;53.188;8.696;2022-11-27T21:50:40;5.60;99.90
16846;DHT22;8539;53.188;8.696;2022-11-27T21:53:07;5.60;99.90
16846;DHT22;8539;53.188;8.696;2022-11-27T21:55:37;6.20;99.90
16846;DHT22;8539;53.188;8.696;2022-11-27T21:58:03;5.70;99.90
16846;DHT22;8539;53.188;8.696;2022-11-27T22:00:29;5.60;99.90
16846;DHT22;8539;53.188;8.696;2022-11-27T22:02:55;5.60;99.90
16846;DHT22;8539;53.188;8.696;2022-11-27T22:05:21;5.60;99.90
16846;DHT22;8539;53.188;8.696;2022-11-27T22:07:47;5.60;99.90
16846;DHT22;8539;53.188;8.696;2022-11-27T22:10:14;5.90;99.90
16846;DHT22;8539;53.188;8.696;2022-11-27T22:12:40;5.60;99.90
16846;DHT22;8539;53.188;8.696;2022-11-27T22:15:09;5.60;99.90
16846;DHT22;8539;53.188;8.696;2022-11-27T22:17:36;5.60;99.90
16846;DHT22;8539;53.188;8.696;2022-11-27T22:20:03;5.70;99.90
16846;DHT22;8539;53.188;8.696;2022-11-27T22:22:29;5.70;99.90
16846;DHT22;8539;53.188;8.696;2022-11-27T22:24:55;5.60;99.90
16846;DHT22;8539;53.188;8.696;2022-11-27T22:27:24;5.80;99.90
16846;DHT22;8539;53.188;8.696;2022-11-27T22:29:50;5.60;99.90
16846;DHT22;8539;53.188;8.696;2022-11-27T22:32:16;5.60;99.90
16846;DHT22;8539;53.188;8.696;2022-11-27T22:34:42;5.60;99.90
16846;DHT22;8539;53.188;8.696;2022-11-27T22:37:08;5.60;99.90
16846;DHT22;8539;53.188;8.696;2022-11-27T22:39:34;5.60;99.90
16846;DHT22;8539;53.188;8.696;2022-11-27T22:42:00;5.60;99.90